首页
METAR-TAF:

METAR-TAF

机场 :

莫伊国际机场

蒙巴萨, 肯尼亚

纬度: 04-02S, 经度: 039-37E, 海拔: 57米

当前天气观测

该预报发布于1小时和45分钟前的09:00 UTC
风速14节,风向
温度 30°C
湿度 40%
气压 1014 hPa
能见度10公里或以上
少量云层高于2500英尺

METAR: HKMO 150900Z 17014KT 9999 FEW025 30/15 Q1014 NOSIG

时间: 13:45 (10:45 UTC)

预报

该预报发布于5小时和45分钟前的05:00 UTC
预报有效从15日的 06点(UTC)到 16日的 12点(UTC)
风速15节,风向
能见度10公里或以上
少量云层高于2600英尺
成为
从 16日的 00点(UTC)到 16日的 03点(UTC)
风速5节,风向西南
少量云层高于1900英尺

TAF: HKMO 150500Z 1506/1612 18015KT 9999 FEW026 BECMG 1600/1603 22005KT FEW019

超过4000个机场的气象观测和天气预报(METAR&TAF报告)。

可查询的气象台以黄色和红色小点在地图上表示。

将鼠标移到小点上方,可查看气象台名称。

然后点击查看天气观测和预报。

如需切换地图:点击带黑十字的绿色按钮放大地图;点击带横线的绿色按钮缩小地图;或者点击绿色箭头查看邻近地区的地图。


METAR-TAF: